createdAt,value
2019-04-30T00:01:39.445Z,10.84
2019-04-30T00:04:15.865Z,10.71
2019-04-30T00:06:45.339Z,10.54
2019-04-30T00:09:19.239Z,10.46
2019-04-30T00:11:54.923Z,10.51
2019-04-30T00:14:21.412Z,10.49
2019-04-30T00:16:50.497Z,10.51
2019-04-30T00:19:20.004Z,10.76
2019-04-30T00:21:56.860Z,10.67
2019-04-30T00:24:20.295Z,10.69
2019-04-30T00:26:52.410Z,10.71
2019-04-30T00:29:26.794Z,10.71
2019-04-30T00:31:51.726Z,10.71
2019-04-30T00:34:20.716Z,10.46
2019-04-30T00:36:50.448Z,10.78
2019-04-30T00:39:19.619Z,10.72
2019-04-30T00:41:49.398Z,10.73
2019-04-30T00:44:23.840Z,10.78
2019-04-30T00:46:50.745Z,10.84
2019-04-30T00:49:23.080Z,10.84
2019-04-30T00:51:54.120Z,10.67
2019-04-30T00:54:22.346Z,10.75
2019-04-30T00:56:52.194Z,10.70
2019-04-30T00:59:21.104Z,10.84
2019-04-30T01:02:09.551Z,10.78
2019-04-30T01:04:45.004Z,10.93
2019-04-30T01:07:15.982Z,10.84
2019-04-30T01:09:49.454Z,10.77
2019-04-30T01:12:17.390Z,10.89
2019-04-30T01:14:49.748Z,10.72
2019-04-30T01:17:19.576Z,10.88
2019-04-30T01:19:51.170Z,10.73
2019-04-30T01:22:27.869Z,10.73
2019-04-30T01:24:51.283Z,10.75
2019-04-30T01:27:20.712Z,10.75
2019-04-30T01:29:49.418Z,10.68
2019-04-30T01:32:21.014Z,10.66
2019-04-30T01:34:53.832Z,10.59
2019-04-30T01:37:24.673Z,10.70
2019-04-30T01:39:50.811Z,10.50
2019-04-30T01:42:19.986Z,10.65
2019-04-30T01:44:53.600Z,10.84
2019-04-30T01:47:27.838Z,10.94
2019-04-30T01:49:55.823Z,10.90
2019-04-30T01:52:22.884Z,10.89
2019-04-30T01:54:51.953Z,10.90
2019-04-30T01:57:43.575Z,10.79
2019-04-30T02:00:31.534Z,10.67
2019-04-30T02:03:00.603Z,10.67
2019-04-30T02:05:29.717Z,10.65
2019-04-30T02:07:58.588Z,10.65
2019-04-30T02:10:28.562Z,10.56
2019-04-30T02:12:59.062Z,10.72
2019-04-30T02:15:29.234Z,10.72
2019-04-30T02:17:58.913Z,10.59
2019-04-30T02:20:28.758Z,10.86
2019-04-30T02:22:58.707Z,10.92
2019-04-30T02:25:29.466Z,10.98
2019-04-30T02:27:59.035Z,11.16
2019-04-30T02:30:30.897Z,10.94
2019-04-30T02:33:00.407Z,10.93
2019-04-30T02:36:03.230Z,10.97
2019-04-30T02:38:32.298Z,10.89
2019-04-30T02:41:02.695Z,10.89
2019-04-30T02:43:34.942Z,10.61
2019-04-30T02:46:05.066Z,10.61
2019-04-30T02:48:39.652Z,10.89
2019-04-30T02:51:12.122Z,10.86
2019-04-30T02:54:25.942Z,10.88
2019-04-30T02:57:11.748Z,11.02
2019-04-30T03:00:00.147Z,11.02
2019-04-30T03:02:30.559Z,10.98
2019-04-30T03:05:00.232Z,10.83
2019-04-30T03:07:29.685Z,10.83
2019-04-30T03:10:00.134Z,10.77
2019-04-30T03:12:33.180Z,10.71
2019-04-30T03:15:00.626Z,10.83
2019-04-30T03:18:06.916Z,10.85
2019-04-30T03:20:54.091Z,10.85
2019-04-30T03:23:23.109Z,10.84
2019-04-30T03:25:52.944Z,11.05
2019-04-30T03:28:21.916Z,10.98
2019-04-30T03:30:56.771Z,11.00
2019-04-30T03:33:24.446Z,11.00
2019-04-30T03:35:54.842Z,11.06
2019-04-30T03:38:24.412Z,10.87
2019-04-30T03:40:53.417Z,10.88
2019-04-30T03:43:22.380Z,10.69
2019-04-30T03:45:51.442Z,11.05
2019-04-30T03:48:20.750Z,10.76
2019-04-30T03:50:56.278Z,10.86
2019-04-30T03:53:20.986Z,10.91
2019-04-30T03:55:50.766Z,10.68
2019-04-30T03:58:21.373Z,10.68
2019-04-30T04:01:00.349Z,10.98
2019-04-30T04:03:31.432Z,11.06
2019-04-30T04:06:21.453Z,11.06
2019-04-30T04:09:00.257Z,11.01
2019-04-30T04:11:33.905Z,11.01
2019-04-30T04:14:02.689Z,10.98
2019-04-30T04:16:32.344Z,11.12
2019-04-30T04:19:02.697Z,11.03
2019-04-30T04:21:31.977Z,10.86
2019-04-30T04:24:01.021Z,10.87
2019-04-30T04:26:30.082Z,11.00
2019-04-30T04:28:59.469Z,10.86
2019-04-30T04:31:29.881Z,11.00
2019-04-30T04:34:00.069Z,10.77
2019-04-30T04:36:30.306Z,10.68
2019-04-30T04:39:00.141Z,10.67
2019-04-30T04:41:29.642Z,10.67
2019-04-30T04:44:00.114Z,10.85
2019-04-30T04:46:30.712Z,10.94
2019-04-30T04:49:01.511Z,10.93
2019-04-30T04:51:37.959Z,10.81
2019-04-30T04:54:03.215Z,10.91
2019-04-30T04:56:32.117Z,10.89
2019-04-30T04:59:01.060Z,11.25
2019-04-30T05:01:30.128Z,11.22
2019-04-30T05:03:59.107Z,11.15
2019-04-30T05:06:29.818Z,11.18
2019-04-30T05:09:01.682Z,11.18
2019-04-30T05:11:32.414Z,10.86
2019-04-30T05:14:01.598Z,10.95
2019-04-30T05:16:30.704Z,11.02
2019-04-30T05:19:01.108Z,11.02
2019-04-30T05:21:42.001Z,11.26
2019-04-30T05:24:02.157Z,11.33
2019-04-30T05:26:31.525Z,11.20
2019-04-30T05:29:00.534Z,11.23
2019-04-30T05:31:29.859Z,11.17
2019-04-30T05:33:59.013Z,11.34
2019-04-30T05:36:29.208Z,11.54
2019-04-30T05:38:58.809Z,11.55
2019-04-30T05:41:28.929Z,11.57
2019-04-30T05:43:59.188Z,11.36
2019-04-30T05:46:29.815Z,11.31
2019-04-30T05:48:59.433Z,11.36
2019-04-30T05:51:29.232Z,11.45
2019-04-30T05:54:01.104Z,11.64
2019-04-30T05:56:30.480Z,11.89
2019-04-30T05:59:00.737Z,11.84
2019-04-30T06:01:29.617Z,11.85
2019-04-30T06:03:59.428Z,11.95
2019-04-30T06:06:29.090Z,12.02
2019-04-30T06:09:14.820Z,12.53
2019-04-30T06:11:59.171Z,12.25
2019-04-30T06:14:51.878Z,12.25
2019-04-30T06:17:21.814Z,12.47
2019-04-30T06:19:52.498Z,12.62
2019-04-30T06:22:22.570Z,12.51
2019-04-30T06:24:52.697Z,12.51
2019-04-30T06:27:22.038Z,12.51
2019-04-30T06:29:51.763Z,12.73
2019-04-30T06:32:20.388Z,12.51
2019-04-30T06:34:50.515Z,12.48
2019-04-30T06:37:23.588Z,12.87
2019-04-30T06:39:54.009Z,13.01
2019-04-30T06:42:23.727Z,13.31
2019-04-30T06:44:52.493Z,13.30
2019-04-30T06:47:32.477Z,12.98
2019-04-30T06:49:54.486Z,12.98
2019-04-30T06:52:23.807Z,13.12
2019-04-30T06:54:52.989Z,13.17
2019-04-30T06:57:22.584Z,13.43
2019-04-30T06:59:52.458Z,13.58
2019-04-30T07:02:22.467Z,13.58
2019-04-30T07:04:52.508Z,13.12
2019-04-30T07:07:36.277Z,13.19
2019-04-30T07:10:01.312Z,13.03
2019-04-30T07:12:38.965Z,13.03
2019-04-30T07:15:08.825Z,13.21
2019-04-30T07:17:40.517Z,12.95
2019-04-30T07:20:10.443Z,12.91
2019-04-30T07:22:48.945Z,13.16
2019-04-30T07:25:12.227Z,13.16
2019-04-30T07:27:43.590Z,13.09
2019-04-30T07:31:18.958Z,13.09
2019-04-30T07:33:59.315Z,12.75
2019-04-30T07:36:48.356Z,12.75
2019-04-30T07:39:13.601Z,13.01
2019-04-30T07:41:43.133Z,12.97
2019-04-30T07:44:29.461Z,12.95
2019-04-30T07:46:45.304Z,13.09
2019-04-30T07:49:16.035Z,12.78
2019-04-30T07:51:51.138Z,12.69
2019-04-30T07:54:20.734Z,12.82
2019-04-30T07:56:55.102Z,12.79
2019-04-30T07:59:25.801Z,12.68
2019-04-30T08:02:06.382Z,12.93
2019-04-30T08:04:50.936Z,12.93
2019-04-30T08:07:20.169Z,12.54
2019-04-30T08:09:58.851Z,12.83
2019-04-30T08:12:36.258Z,12.83
2019-04-30T08:15:12.486Z,13.01
2019-04-30T08:17:43.445Z,12.86
2019-04-30T08:20:29.534Z,12.86
2019-04-30T08:23:13.303Z,12.85
2019-04-30T08:37:17.210Z,13.69
2019-04-30T08:39:39.780Z,13.81
2019-04-30T08:42:09.067Z,13.79
2019-04-30T08:44:39.642Z,13.71
2019-04-30T08:47:09.548Z,13.86
2019-04-30T08:49:40.691Z,13.80
2019-04-30T08:52:12.114Z,13.62
2019-04-30T08:54:42.315Z,13.92
2019-04-30T08:57:12.779Z,13.84
2019-04-30T08:59:42.705Z,13.52
2019-04-30T09:02:16.370Z,13.44
2019-04-30T09:04:44.680Z,13.37
2019-04-30T09:07:14.127Z,13.84
2019-04-30T09:09:44.688Z,13.84
2019-04-30T09:12:15.686Z,14.32
2019-04-30T09:14:48.880Z,14.87
2019-04-30T09:17:19.919Z,14.90
2019-04-30T09:19:50.984Z,14.97
2019-04-30T09:22:20.842Z,15.25
2019-04-30T09:24:51.759Z,15.33
2019-04-30T09:27:21.988Z,15.15
2019-04-30T09:29:52.269Z,15.15
2019-04-30T09:32:22.814Z,15.19
2019-04-30T09:34:54.454Z,15.28
2019-04-30T09:37:25.284Z,15.53
2019-04-30T09:39:55.485Z,15.53
2019-04-30T09:42:26.500Z,16.20
2019-04-30T09:44:57.221Z,16.20
2019-04-30T09:47:27.006Z,16.08
2019-04-30T09:49:59.623Z,15.82
2019-04-30T09:52:31.676Z,16.93
2019-04-30T09:55:02.276Z,16.93
2019-04-30T09:57:33.893Z,17.14
2019-04-30T10:00:05.861Z,16.85
2019-04-30T10:02:43.656Z,16.76
2019-04-30T10:05:19.893Z,16.97
2019-04-30T10:07:59.987Z,16.97
2019-04-30T10:10:44.536Z,16.86
2019-04-30T10:13:16.678Z,16.19
2019-04-30T10:16:09.815Z,16.29
2019-04-30T10:18:40.334Z,16.29
2019-04-30T10:21:10.046Z,16.13
2019-04-30T10:23:39.825Z,15.77
2019-04-30T10:26:10.982Z,16.04
2019-04-30T10:28:45.354Z,16.53
2019-04-30T10:31:14.439Z,16.52
2019-04-30T10:33:43.578Z,15.98
2019-04-30T10:36:12.572Z,16.26
2019-04-30T10:38:41.561Z,16.26
2019-04-30T10:41:09.888Z,16.21
2019-04-30T10:43:39.333Z,16.50
2019-04-30T10:46:09.728Z,16.10
2019-04-30T10:48:38.882Z,16.10
2019-04-30T10:51:09.070Z,15.77
2019-04-30T10:53:38.418Z,16.06
2019-04-30T10:56:09.540Z,16.42
2019-04-30T10:58:38.586Z,16.95
2019-04-30T11:01:09.599Z,17.22
2019-04-30T11:03:39.192Z,17.16
2019-04-30T11:06:09.302Z,17.16
2019-04-30T11:08:38.113Z,17.03
2019-04-30T11:11:06.998Z,16.54
2019-04-30T11:13:37.121Z,17.05
2019-04-30T11:16:13.274Z,16.70
2019-04-30T11:18:38.118Z,17.55
2019-04-30T11:21:09.541Z,18.68
2019-04-30T11:23:39.512Z,18.94
2019-04-30T11:26:09.360Z,19.21
2019-04-30T11:28:38.891Z,19.83
2019-04-30T11:31:33.099Z,20.97
2019-04-30T11:34:04.630Z,21.36
2019-04-30T11:36:35.912Z,21.91
2019-04-30T11:39:12.052Z,21.91
2019-04-30T11:41:41.168Z,26.11
2019-04-30T11:44:28.563Z,28.04
2019-04-30T11:47:52.889Z,28.81
2019-04-30T11:50:14.978Z,29.00
2019-04-30T11:52:44.406Z,27.68
2019-04-30T11:55:14.810Z,22.62
2019-04-30T11:57:49.552Z,22.62
2019-04-30T12:00:29.541Z,22.44
2019-04-30T12:02:59.323Z,22.57
2019-04-30T12:05:31.121Z,24.10
2019-04-30T12:08:13.537Z,23.69
2019-04-30T12:11:01.553Z,21.81
2019-04-30T12:13:31.222Z,23.48
2019-04-30T12:16:01.606Z,23.48
2019-04-30T12:18:33.553Z,26.24
2019-04-30T12:21:02.579Z,24.47
2019-04-30T12:23:31.992Z,24.31
2019-04-30T12:26:03.010Z,24.31
2019-04-30T12:28:33.730Z,26.70
2019-04-30T12:31:02.630Z,27.87
2019-04-30T12:33:31.451Z,30.08
2019-04-30T12:36:00.782Z,30.90
2019-04-30T12:38:30.466Z,29.97
2019-04-30T12:40:59.691Z,28.30
2019-04-30T12:43:28.783Z,27.26
2019-04-30T12:46:03.443Z,28.46
2019-04-30T12:48:39.845Z,29.39
2019-04-30T12:51:32.320Z,30.81
2019-04-30T12:54:10.423Z,30.56
2019-04-30T12:57:01.858Z,28.30
2019-04-30T13:01:02.680Z,25.72
2019-04-30T13:06:20.587Z,28.63
2019-04-30T13:08:52.578Z,28.88
2019-04-30T13:11:22.475Z,29.93
2019-04-30T13:13:53.465Z,29.17
2019-04-30T13:16:22.970Z,28.92
2019-04-30T13:18:52.851Z,27.66
2019-04-30T13:21:22.197Z,25.37
2019-04-30T13:23:52.261Z,23.49
2019-04-30T13:26:21.619Z,23.49
2019-04-30T13:28:58.493Z,21.12
2019-04-30T13:31:29.421Z,21.17
2019-04-30T13:34:18.599Z,20.53
2019-04-30T13:36:49.243Z,19.57
2019-04-30T13:39:26.975Z,18.99
2019-04-30T13:42:25.069Z,20.20
2019-04-30T13:44:54.706Z,21.71
2019-04-30T13:47:23.933Z,23.57
2019-04-30T13:49:54.029Z,23.93
2019-04-30T13:52:24.492Z,23.91
2019-04-30T13:54:54.452Z,22.20
2019-04-30T13:57:23.730Z,22.20
2019-04-30T13:59:55.774Z,21.36
2019-04-30T14:02:25.458Z,22.43
2019-04-30T14:05:03.679Z,22.78
2019-04-30T14:08:09.383Z,22.30
2019-04-30T14:10:42.571Z,22.30
2019-04-30T14:13:11.487Z,21.73
2019-04-30T14:15:40.798Z,21.73
2019-04-30T14:18:10.474Z,21.46
2019-04-30T14:20:39.566Z,21.54
2019-04-30T14:23:10.695Z,21.55
2019-04-30T14:25:38.972Z,22.61
2019-04-30T14:28:09.450Z,22.61
2019-04-30T14:30:39.300Z,22.38
2019-04-30T14:33:09.409Z,22.38
2019-04-30T14:35:38.734Z,21.65
2019-04-30T14:38:08.889Z,21.65
2019-04-30T14:40:40.504Z,22.28
2019-04-30T14:43:19.652Z,21.97
2019-04-30T14:46:17.268Z,21.64
2019-04-30T14:48:51.177Z,21.40
2019-04-30T14:51:23.325Z,21.09
2019-04-30T14:54:10.923Z,21.31
2019-04-30T14:56:49.561Z,21.55
2019-04-30T14:59:50.697Z,22.63
2019-04-30T15:02:34.739Z,22.63
2019-04-30T15:05:05.767Z,22.23
2019-04-30T15:07:35.296Z,21.99
2019-04-30T15:10:04.961Z,21.80
2019-04-30T15:12:34.603Z,22.26
2019-04-30T15:15:03.460Z,21.86
2019-04-30T15:17:33.511Z,22.00
2019-04-30T15:20:02.975Z,22.00
2019-04-30T15:22:34.901Z,22.49
2019-04-30T15:25:04.586Z,22.07
2019-04-30T15:27:35.120Z,22.53
2019-04-30T15:30:06.653Z,22.53
2019-04-30T15:32:39.464Z,22.43
2019-04-30T15:35:09.537Z,22.53
2019-04-30T15:37:50.208Z,20.90
2019-04-30T15:40:20.789Z,19.39
2019-04-30T15:42:52.871Z,19.39
2019-04-30T15:45:23.982Z,18.74
2019-04-30T15:47:54.781Z,17.98
2019-04-30T15:50:25.584Z,17.35
2019-04-30T15:52:56.028Z,18.23
2019-04-30T15:55:26.870Z,18.23
2019-04-30T15:58:24.666Z,18.70
2019-04-30T16:00:55.924Z,18.82
2019-04-30T16:03:44.970Z,18.57
2019-04-30T16:06:14.146Z,18.77
2019-04-30T16:08:49.964Z,18.84
2019-04-30T16:11:44.053Z,18.84
2019-04-30T16:14:26.420Z,18.05
2019-04-30T16:17:09.882Z,18.12
2019-04-30T16:19:39.032Z,18.03
2019-04-30T16:22:07.946Z,18.05
2019-04-30T16:24:38.675Z,17.79
2019-04-30T16:27:09.277Z,17.99
2019-04-30T16:29:40.665Z,18.16
2019-04-30T16:32:09.738Z,18.85
2019-04-30T16:34:39.010Z,18.85
2019-04-30T16:37:08.439Z,19.44
2019-04-30T16:39:39.677Z,19.74
2019-04-30T16:42:09.150Z,19.69
2019-04-30T16:44:38.737Z,19.69
2019-04-30T16:47:14.572Z,19.38
2019-04-30T16:49:38.789Z,19.87
2019-04-30T16:52:09.228Z,20.02
2019-04-30T16:54:39.550Z,20.30
2019-04-30T16:57:10.294Z,20.37
2019-04-30T16:59:41.756Z,20.04
2019-04-30T17:02:12.919Z,20.04
2019-04-30T17:04:49.381Z,19.59
2019-04-30T17:07:36.468Z,19.38
2019-04-30T17:10:14.265Z,19.66
2019-04-30T17:12:51.569Z,19.01
2019-04-30T17:15:29.198Z,18.78
2019-04-30T17:18:03.190Z,19.07
2019-04-30T17:20:32.878Z,18.98
2019-04-30T17:23:02.300Z,18.96
2019-04-30T17:25:31.404Z,18.56
2019-04-30T17:28:01.433Z,18.67
2019-04-30T17:30:29.856Z,18.17
2019-04-30T17:32:59.705Z,18.43
2019-04-30T17:35:30.589Z,18.47
2019-04-30T17:37:59.102Z,18.00
2019-04-30T17:40:29.113Z,18.00
2019-04-30T17:42:58.779Z,18.02
2019-04-30T17:45:29.250Z,17.40
2019-04-30T17:47:58.582Z,17.08
2019-04-30T17:50:29.582Z,17.01
2019-04-30T17:53:00.688Z,17.01
2019-04-30T17:55:30.065Z,17.17
2019-04-30T17:58:01.568Z,17.11
2019-04-30T18:00:35.907Z,17.05
2019-04-30T18:03:11.001Z,16.94
2019-04-30T18:05:42.580Z,16.86
2019-04-30T18:08:14.126Z,16.58
2019-04-30T18:10:44.064Z,16.45
2019-04-30T18:13:13.802Z,16.18
2019-04-30T18:15:43.312Z,15.98
2019-04-30T18:18:24.735Z,15.83
2019-04-30T18:21:18.900Z,15.76
2019-04-30T18:24:16.647Z,15.43
2019-04-30T18:27:08.704Z,15.24
2019-04-30T18:29:37.441Z,14.88
2019-04-30T18:32:07.177Z,14.61
2019-04-30T18:34:39.156Z,14.42
2019-04-30T18:37:09.046Z,14.43
2019-04-30T18:39:39.680Z,14.34
2019-04-30T18:42:11.083Z,14.39
2019-04-30T18:44:40.553Z,14.29
2019-04-30T18:47:10.313Z,14.39
2019-04-30T18:49:40.704Z,14.39
2019-04-30T18:52:09.978Z,13.84
2019-04-30T18:54:39.729Z,13.39
2019-04-30T18:57:09.060Z,12.85
2019-04-30T18:59:41.718Z,12.54
2019-04-30T19:02:12.639Z,12.28
2019-04-30T19:04:42.135Z,11.94
2019-04-30T19:07:29.106Z,11.94
2019-04-30T19:10:27.302Z,12.01
2019-04-30T19:13:19.009Z,11.87
2019-04-30T19:16:19.757Z,11.80
2019-04-30T19:18:44.812Z,12.01
2019-04-30T19:21:13.981Z,11.97
2019-04-30T19:23:43.131Z,11.94
2019-04-30T19:26:12.140Z,11.79
2019-04-30T19:28:41.510Z,11.90
2019-04-30T19:31:11.677Z,11.89
2019-04-30T19:33:41.293Z,12.05
2019-04-30T19:36:10.602Z,12.09
2019-04-30T19:38:39.871Z,11.85
2019-04-30T19:41:10.885Z,11.69
2019-04-30T19:43:41.019Z,11.62
2019-04-30T19:46:10.628Z,11.38
2019-04-30T19:48:41.176Z,11.41
2019-04-30T19:51:11.326Z,11.36
2019-04-30T19:53:42.391Z,11.35
2019-04-30T19:56:11.918Z,11.17
2019-04-30T19:58:54.423Z,11.17
2019-04-30T20:01:13.536Z,11.01
2019-04-30T20:03:42.375Z,11.01
2019-04-30T20:06:11.882Z,10.89
2019-04-30T20:08:41.606Z,10.70
2019-04-30T20:13:56.830Z,10.69
2019-04-30T20:16:26.701Z,10.73
2019-04-30T20:18:54.888Z,10.68
2019-04-30T20:21:28.551Z,10.59
2019-04-30T20:23:57.570Z,10.57
2019-04-30T20:26:27.158Z,10.32
2019-04-30T20:28:58.596Z,9.95
2019-04-30T20:31:28.864Z,10.06
2019-04-30T20:33:59.149Z,10.14
2019-04-30T20:36:29.604Z,9.92
2019-04-30T20:39:18.256Z,9.85
2019-04-30T20:41:50.559Z,9.96
2019-04-30T20:44:20.317Z,9.98
2019-04-30T20:46:49.734Z,9.98
2019-04-30T20:49:19.246Z,9.87
2019-04-30T20:51:55.593Z,9.94
2019-04-30T20:54:20.065Z,9.77
2019-04-30T20:56:50.990Z,9.77
2019-04-30T20:59:19.973Z,9.67
2019-04-30T21:01:49.160Z,9.80
2019-04-30T21:04:20.811Z,9.68
2019-04-30T21:06:49.627Z,9.48
2019-04-30T21:09:18.826Z,9.66
2019-04-30T21:11:49.026Z,9.72
2019-04-30T21:14:19.390Z,9.53
2019-04-30T21:16:48.770Z,9.49
2019-04-30T21:19:19.141Z,9.33
2019-04-30T21:21:49.682Z,9.36
2019-04-30T21:24:19.114Z,9.14
2019-04-30T21:26:48.092Z,9.29
2019-04-30T21:29:18.852Z,9.16
2019-04-30T21:32:49.445Z,9.17
2019-04-30T21:35:35.739Z,8.63
2019-04-30T21:38:04.946Z,8.63
2019-04-30T21:40:36.719Z,8.64
2019-04-30T21:43:05.998Z,8.54
2019-04-30T21:45:35.602Z,8.39
2019-04-30T21:48:04.439Z,8.37
2019-04-30T21:50:33.522Z,8.36
2019-04-30T21:53:02.779Z,8.42
2019-04-30T21:55:31.280Z,8.42
2019-04-30T21:58:00.825Z,8.27
2019-04-30T22:00:49.623Z,7.94
2019-04-30T22:03:20.792Z,7.88
2019-04-30T22:05:50.430Z,7.75
2019-04-30T22:08:19.719Z,7.89
2019-04-30T22:10:48.977Z,7.84
2019-04-30T22:13:19.070Z,7.53
2019-04-30T22:15:48.433Z,7.46
2019-04-30T22:18:18.071Z,7.58
2019-04-30T22:20:47.462Z,7.58
2019-04-30T22:23:16.592Z,7.23
2019-04-30T22:25:45.737Z,7.20
2019-04-30T22:28:14.092Z,7.20
2019-04-30T22:30:44.412Z,7.15
2019-04-30T22:33:13.667Z,7.16
2019-04-30T22:36:00.829Z,7.01
2019-04-30T22:38:34.975Z,7.01
2019-04-30T22:41:04.479Z,7.16
2019-04-30T22:43:33.470Z,7.39
2019-04-30T22:46:09.851Z,7.18
2019-04-30T22:48:39.075Z,6.96
2019-04-30T22:51:08.030Z,6.97
2019-04-30T22:53:37.521Z,7.15
2019-04-30T22:56:06.402Z,7.25
2019-04-30T22:58:35.585Z,7.32
2019-04-30T23:01:21.419Z,6.97
2019-04-30T23:03:52.585Z,6.97
2019-04-30T23:06:22.078Z,7.01
2019-04-30T23:08:51.720Z,7.08
2019-04-30T23:11:20.010Z,6.84
2019-04-30T23:16:20.583Z,6.54
2019-04-30T23:18:49.568Z,6.55
2019-04-30T23:21:19.567Z,6.73
2019-04-30T23:23:48.513Z,6.73
2019-04-30T23:26:17.740Z,6.90
2019-04-30T23:28:46.003Z,6.73
2019-04-30T23:31:16.411Z,6.83
2019-04-30T23:33:45.417Z,6.71
2019-04-30T23:36:14.496Z,6.58
2019-04-30T23:38:43.556Z,6.42
2019-04-30T23:41:12.779Z,6.14
2019-04-30T23:43:41.246Z,6.16
2019-04-30T23:46:10.453Z,6.57
2019-04-30T23:48:39.706Z,6.58
2019-04-30T23:51:08.942Z,6.27
2019-04-30T23:53:38.111Z,6.27
2019-04-30T23:56:07.619Z,6.15
2019-04-30T23:58:36.995Z,5.87
